Time;durP1;ratioP1;P1;durP2;ratioP2;P2;SDS_P1;SDS_P2;PMS_P1;PMS_P2;Temp;Humidity;BMP_temperature;BMP_pressure;BME280_temperature;BME280_humidity;BME280_pressure;Samples;Min_cycle;Max_cycle;Signal;HPM_P1;HPM_P2
2024/04/23 00:01:35;;;;;;;8.67;7.60;;;7.50;83.90;;;;;;5533056;25;20225;-56
2024/04/23 00:04:03;;;;;;;9.00;7.00;;;7.40;83.80;;;;;;5533323;25;20501;-56
2024/04/23 00:06:29;;;;;;;9.03;8.17;;;7.40;84.00;;;;;;5533207;25;20580;-56
2024/04/23 00:08:57;;;;;;;9.30;8.50;;;7.40;84.30;;;;;;5533390;25;20570;-56
2024/04/23 00:11:26;;;;;;;9.07;8.17;;;7.40;84.50;;;;;;5532925;25;20221;-56
2024/04/23 00:13:54;;;;;;;11.27;8.53;;;7.40;84.60;;;;;;5532649;25;20562;-56
2024/04/23 00:16:20;;;;;;;9.10;8.20;;;7.40;84.70;;;;;;5532597;25;20491;-56
2024/04/23 00:18:48;;;;;;;12.00;9.63;;;7.40;84.90;;;;;;5532761;25;20971;-56
2024/04/23 00:21:14;;;;;;;9.17;8.27;;;7.30;84.90;;;;;;5532486;25;20225;-56
2024/04/23 00:23:43;;;;;;;10.77;8.73;;;7.30;85.00;;;;;;5532854;25;20860;-56
2024/04/23 00:26:09;;;;;;;8.00;7.20;;;7.30;85.00;;;;;;5532541;25;20225;-55
2024/04/23 00:28:40;;;;;;;10.00;8.97;;;7.30;85.00;;;;;;5532693;25;20445;-56
2024/04/23 00:31:05;;;;;;;10.63;8.53;;;7.30;85.00;;;;;;5532668;25;20236;-56
2024/04/23 00:33:34;;;;;;;9.70;8.70;;;7.20;85.20;;;;;;5532349;25;20549;-56
2024/04/23 00:36:00;;;;;;;9.53;8.13;;;7.20;85.30;;;;;;5526939;25;20297;-56
2024/04/23 00:38:28;;;;;;;9.50;8.60;;;7.20;85.30;;;;;;5527887;25;20462;-56
2024/04/23 00:40:54;;;;;;;9.87;8.93;;;7.20;85.40;;;;;;5528084;25;20336;-56
2024/04/23 00:43:22;;;;;;;12.13;9.03;;;7.10;85.20;;;;;;5528505;25;20454;-56
2024/04/23 00:45:57;;;;;;;9.50;8.33;;;7.10;85.40;;;;;;5528410;25;20583;-57
2024/04/23 00:48:26;;;;;;;10.13;8.87;;;7.10;85.80;;;;;;5528353;25;20592;-56
2024/04/23 00:50:52;;;;;;;9.60;8.70;;;7.10;86.10;;;;;;5528682;25;20525;-56
2024/04/23 00:53:21;;;;;;;12.10;9.30;;;7.10;86.30;;;;;;5528367;25;20450;-56
2024/04/23 00:55:47;;;;;;;8.60;7.70;;;7.10;86.60;;;;;;5528385;25;20563;-56
2024/04/23 00:58:16;;;;;;;9.83;8.83;;;7.00;86.60;;;;;;5528070;25;20450;-56
2024/04/23 01:00:41;;;;;;;9.30;8.40;;;7.00;86.70;;;;;;5528061;25;20325;-56
2024/04/23 01:03:13;;;;;;;9.60;8.70;;;7.00;86.80;;;;;;5527993;25;20994;-56
2024/04/23 01:05:38;;;;;;;10.50;9.23;;;7.00;86.80;;;;;;5528396;25;20691;-56
2024/04/23 01:08:07;;;;;;;10.30;8.90;;;7.00;87.00;;;;;;5528054;25;20454;-56
2024/04/23 01:10:33;;;;;;;10.93;9.90;;;6.90;86.80;;;;;;5527921;25;20317;-56
2024/04/23 01:13:01;;;;;;;10.27;9.17;;;6.90;86.70;;;;;;5528022;25;20963;-56
2024/04/23 01:15:28;;;;;;;10.80;9.70;;;6.90;86.80;;;;;;5527714;25;20229;-55
2024/04/23 01:18:01;;;;;;;9.97;9.00;;;6.90;86.90;;;;;;5527986;25;20454;-56
2024/04/23 01:20:31;;;;;;;10.37;9.33;;;6.90;86.80;;;;;;5527811;25;20808;-56
2024/04/23 01:23:08;;;;;;;10.30;9.30;;;6.80;86.80;;;;;;5527832;25;20521;-56
2024/04/23 01:25:36;;;;;;;10.67;9.23;;;6.80;87.00;;;;;;5527859;25;20450;-56
2024/04/23 01:28:08;;;;;;;9.33;8.53;;;6.80;87.20;;;;;;5527926;25;20506;-56
2024/04/23 01:30:34;;;;;;;12.03;9.67;;;6.80;87.30;;;;;;5527745;25;21015;-55
2024/04/23 01:33:04;;;;;;;11.80;9.83;;;6.80;87.20;;;;;;5527805;25;20544;-55
2024/04/23 01:35:30;;;;;;;11.03;9.23;;;6.70;87.10;;;;;;5527672;25;20910;-55
2024/04/23 01:37:59;;;;;;;10.50;9.50;;;6.70;87.10;;;;;;5527599;25;20536;-55
2024/04/23 01:40:26;;;;;;;12.10;9.50;;;6.70;87.20;;;;;;5527423;25;20450;-56
2024/04/23 01:42:55;;;;;;;11.37;10.23;;;6.60;87.20;;;;;;5527694;25;20559;-56
2024/04/23 01:45:24;;;;;;;10.83;9.60;;;6.60;87.30;;;;;;5527137;25;20844;-56
2024/04/23 01:47:52;;;;;;;10.13;9.13;;;6.60;87.70;;;;;;5527165;25;20438;-56
2024/04/23 01:50:18;;;;;;;11.93;9.70;;;6.60;87.80;;;;;;5527304;25;20559;-56
2024/04/23 01:52:47;;;;;;;9.60;8.60;;;6.60;87.80;;;;;;5527628;25;20458;-56
2024/04/23 01:55:15;;;;;;;10.50;9.50;;;6.60;88.00;;;;;;5527289;25;20263;-56
2024/04/23 01:57:44;;;;;;;9.50;8.53;;;6.60;88.30;;;;;;5527504;25;20446;-56
2024/04/23 02:00:13;;;;;;;12.87;10.77;;;6.50;88.30;;;;;;5527243;25;20503;-56
2024/04/23 02:02:45;;;;;;;10.53;9.43;;;6.50;88.50;;;;;;5527269;25;20458;-56
2024/04/23 02:05:13;;;;;;;11.00;9.90;;;6.50;88.70;;;;;;5527351;25;20470;-56
2024/04/23 02:07:41;;;;;;;11.77;10.57;;;6.50;88.70;;;;;;5527140;25;20912;-56
2024/04/23 02:10:08;;;;;;;11.07;9.97;;;6.50;88.90;;;;;;5527106;25;20563;-56
2024/04/23 02:12:38;;;;;;;9.83;8.93;;;6.50;89.00;;;;;;5527100;25;20446;-56
2024/04/23 02:15:05;;;;;;;12.53;11.23;;;6.50;89.20;;;;;;5527075;25;20466;-56
2024/04/23 02:17:34;;;;;;;11.43;10.27;;;6.40;89.10;;;;;;5526724;25;20814;-55
2024/04/23 02:20:03;;;;;;;12.13;10.53;;;6.40;88.90;;;;;;5527130;25;20454;-55
2024/04/23 02:22:31;;;;;;;12.17;9.93;;;6.40;88.90;;;;;;5526830;25;20516;-56
2024/04/23 02:24:57;;;;;;;10.03;9.10;;;6.30;89.00;;;;;;5526989;25;20921;-55
2024/04/23 02:27:26;;;;;;;11.23;9.40;;;6.30;89.00;;;;;;5526904;25;20454;-56
2024/04/23 02:29:51;;;;;;;9.63;8.63;;;6.20;89.00;;;;;;5527191;25;20839;-56
2024/04/23 02:32:20;;;;;;;11.23;10.03;;;6.10;89.00;;;;;;5526893;25;20470;-56
2024/04/23 02:34:46;;;;;;;10.13;9.10;;;6.10;89.30;;;;;;5526721;25;20213;-56
2024/04/23 02:37:17;;;;;;;11.90;9.97;;;6.00;89.40;;;;;;5526742;25;21036;-56
2024/04/23 02:39:42;;;;;;;9.27;8.37;;;6.00;89.40;;;;;;5526831;25;20221;-56
2024/04/23 02:42:11;;;;;;;14.70;10.70;;;6.00;89.40;;;;;;5526769;25;20454;-55
2024/04/23 02:44:37;;;;;;;10.50;9.40;;;6.00;89.40;;;;;;5526666;25;20221;-56
2024/04/23 02:47:05;;;;;;;11.40;9.30;;;6.00;89.50;;;;;;5526743;25;21023;-55
2024/04/23 02:49:31;;;;;;;10.50;9.50;;;6.00;89.50;;;;;;5526750;25;20261;-56
2024/04/23 02:52:01;;;;;;;9.60;8.60;;;6.00;89.40;;;;;;5526750;25;20863;-55
2024/04/23 02:54:32;;;;;;;10.83;9.63;;;6.00;89.40;;;;;;5528666;25;20815;-55
2024/04/23 02:56:58;;;;;;;10.30;9.27;;;6.00;89.50;;;;;;5528572;25;20562;-56
2024/04/23 02:59:27;;;;;;;10.50;9.40;;;6.00;89.40;;;;;;5526154;25;20454;-55
2024/04/23 03:02:01;;;;;;;10.13;9.13;;;6.00;89.40;;;;;;5526377;25;20237;-55
2024/04/23 03:04:29;;;;;;;9.73;8.80;;;5.90;89.40;;;;;;5526424;25;20592;-55
2024/04/23 03:06:55;;;;;;;9.27;8.40;;;5.90;89.50;;;;;;5526272;25;20560;-55
2024/04/23 03:09:23;;;;;;;10.20;9.20;;;5.90;89.40;;;;;;5526172;25;20458;-56
2024/04/23 03:11:55;;;;;;;10.37;9.37;;;5.90;89.40;;;;;;5526086;25;20333;-55
2024/04/23 03:14:23;;;;;;;11.27;9.97;;;5.80;89.50;;;;;;5526148;25;20502;-55
2024/04/23 03:16:49;;;;;;;11.07;8.97;;;5.80;89.60;;;;;;5526079;25;20567;-55
2024/04/23 03:19:18;;;;;;;9.80;8.00;;;5.80;89.60;;;;;;5526376;25;20450;-55
2024/04/23 03:21:48;;;;;;;10.63;9.50;;;5.80;89.70;;;;;;5526351;25;20221;-56
2024/04/23 03:24:17;;;;;;;11.60;10.53;;;5.80;89.70;;;;;;5526008;25;20979;-55
2024/04/23 03:26:43;;;;;;;10.00;8.90;;;5.70;89.50;;;;;;5526164;25;20563;-56
2024/04/23 03:29:14;;;;;;;13.13;10.57;;;5.70;89.50;;;;;;5526027;25;20446;-56
2024/04/23 03:31:40;;;;;;;9.87;8.97;;;5.70;89.80;;;;;;5525757;25;20226;-55
2024/04/23 03:34:08;;;;;;;10.97;9.87;;;5.70;90.00;;;;;;5526189;25;20498;-55
2024/04/23 03:36:34;;;;;;;10.13;9.30;;;5.60;90.00;;;;;;5526075;25;20229;-56
2024/04/23 03:39:02;;;;;;;10.37;9.37;;;5.60;90.00;;;;;;5525529;25;20952;-55
2024/04/23 03:41:28;;;;;;;10.83;9.73;;;5.50;90.10;;;;;;5525395;25;20255;-55
2024/04/23 03:43:57;;;;;;;12.97;9.37;;;5.50;90.30;;;;;;5525564;25;20936;-56
2024/04/23 03:46:28;;;;;;;10.80;9.80;;;5.50;90.40;;;;;;5525831;25;20321;-56
2024/04/23 03:48:54;;;;;;;10.33;9.33;;;5.50;90.60;;;;;;5526056;25;20912;-56
2024/04/23 03:51:22;;;;;;;10.97;9.97;;;5.50;90.60;;;;;;5526083;25;20458;-57
2024/04/23 03:53:48;;;;;;;10.30;9.03;;;5.40;90.50;;;;;;5525875;25;20571;-56
2024/04/23 03:56:17;;;;;;;11.13;9.73;;;5.40;90.60;;;;;;5525953;25;20544;-56
2024/04/23 03:58:42;;;;;;;10.50;9.50;;;5.40;90.60;;;;;;5525498;25;20318;-56
2024/04/23 04:01:11;;;;;;;11.93;10.67;;;5.40;90.70;;;;;;5525335;25;20475;-55
2024/04/23 04:06:26;;;;;;;11.57;9.17;;;5.40;90.70;;;;;;5528408;26;20475;-56
2024/04/23 04:08:55;;;;;;;11.93;9.87;;;5.30;90.70;;;;;;5526044;25;20563;-55
2024/04/23 04:11:21;;;;;;;10.37;9.20;;;5.30;90.70;;;;;;5528745;25;20567;-55
2024/04/23 04:13:49;;;;;;;12.03;9.77;;;5.30;90.70;;;;;;5528782;25;20458;-55
2024/04/23 04:16:15;;;;;;;9.63;8.60;;;5.30;90.80;;;;;;5528816;25;20214;-55
2024/04/23 04:18:49;;;;;;;11.83;8.90;;;5.30;90.90;;;;;;5528753;25;20450;-55
2024/04/23 04:21:15;;;;;;;10.00;8.70;;;5.30;90.90;;;;;;5528529;25;20221;-55
2024/04/23 04:23:43;;;;;;;12.00;10.80;;;5.30;90.90;;;;;;5528632;25;20496;-55
2024/04/23 04:26:11;;;;;;;10.13;9.23;;;5.20;90.90;;;;;;5528745;25;20317;-55
2024/04/23 04:28:40;;;;;;;10.90;9.43;;;5.20;90.70;;;;;;5528695;25;20446;-56
2024/04/23 04:31:07;;;;;;;10.83;9.67;;;5.20;90.70;;;;;;5528837;25;20517;-55
2024/04/23 04:33:36;;;;;;;12.17;9.50;;;5.20;90.70;;;;;;5528379;25;20461;-55
2024/04/23 04:36:05;;;;;;;12.23;10.90;;;5.20;90.70;;;;;;5528366;25;20509;-55
2024/04/23 04:38:34;;;;;;;11.63;10.50;;;5.20;90.70;;;;;;5528577;25;20581;-55
2024/04/23 04:40:59;;;;;;;11.27;9.90;;;5.20;90.70;;;;;;5528245;25;20477;-55
2024/04/23 04:43:28;;;;;;;13.83;12.33;;;5.20;90.70;;;;;;5528257;25;20502;-55
2024/04/23 04:45:54;;;;;;;11.50;9.77;;;5.20;90.80;;;;;;5528583;25;20217;-56
2024/04/23 04:48:22;;;;;;;11.77;10.50;;;5.20;90.90;;;;;;5528493;25;20462;-55
2024/04/23 04:50:48;;;;;;;12.30;10.10;;;5.30;91.00;;;;;;5528226;25;20332;-56
2024/04/23 04:53:19;;;;;;;12.43;10.90;;;5.30;91.20;;;;;;5528284;25;20450;-55
2024/04/23 04:55:45;;;;;;;14.80;11.20;;;5.30;91.30;;;;;;5528372;25;20222;-55
2024/04/23 04:58:13;;;;;;;12.63;11.33;;;5.30;91.20;;;;;;5528246;25;20506;-55
2024/04/23 05:00:39;;;;;;;12.53;11.10;;;5.20;91.20;;;;;;5528097;25;20237;-55
2024/04/23 05:03:07;;;;;;;12.53;10.23;;;5.30;91.30;;;;;;5528486;25;20507;-56
2024/04/23 05:05:33;;;;;;;11.37;10.17;;;5.20;91.40;;;;;;5528117;25;20217;-55
2024/04/23 05:08:02;;;;;;;11.30;10.10;;;5.20;91.50;;;;;;5528435;25;21059;-56
2024/04/23 05:10:30;;;;;;;10.50;9.50;;;5.20;91.70;;;;;;5527975;25;20298;-55
2024/04/23 05:12:59;;;;;;;10.10;8.97;;;5.20;91.80;;;;;;5528053;25;20543;-55
2024/04/23 05:15:25;;;;;;;12.50;10.13;;;5.20;91.90;;;;;;5527700;25;20458;-56
2024/04/23 05:17:54;;;;;;;11.37;10.13;;;5.20;92.10;;;;;;5528368;25;20575;-55
2024/04/23 05:20:20;;;;;;;11.37;10.20;;;5.20;92.20;;;;;;5527397;25;20835;-56
2024/04/23 05:22:48;;;;;;;12.23;10.73;;;5.20;92.30;;;;;;5527304;25;20447;-55
2024/04/23 05:25:14;;;;;;;12.40;11.00;;;5.30;92.50;;;;;;5527894;25;20783;-55
2024/04/23 05:27:45;;;;;;;14.77;12.47;;;5.30;92.60;;;;;;5528009;25;20442;-55
2024/04/23 05:32:46;;;;;;;12.73;11.00;;;5.30;92.60;;;;;;5527731;25;20309;-56
2024/04/23 05:33:00;;;;;;;12.47;11.17;;;5.40;92.70;;;;;;5527704;26;20518;-56
2024/04/23 05:35:28;;;;;;;12.27;10.67;;;5.40;92.80;;;;;;5527736;25;20473;-56
2024/04/23 05:37:57;;;;;;;14.13;12.73;;;5.40;93.00;;;;;;5527556;25;20563;-56
2024/04/23 05:40:25;;;;;;;12.80;11.50;;;5.50;93.20;;;;;;5527524;25;20554;-56
2024/04/23 05:42:56;;;;;;;18.17;13.20;;;5.50;93.40;;;;;;5527734;25;20446;-55
2024/04/23 05:45:25;;;;;;;14.67;12.30;;;5.60;93.70;;;;;;5527568;25;20502;-55
2024/04/23 05:48:30;;;;;;;15.40;13.80;;;5.60;93.90;;;;;;5527632;25;20490;-55
2024/04/23 05:51:36;;;;;;;17.00;12.37;;;5.60;94.10;;;;;;5527643;25;20469;-56
2024/04/23 05:54:39;;;;;;;16.33;12.77;;;5.70;94.30;;;;;;5527619;25;20454;-56
2024/04/23 05:57:08;;;;;;;17.83;13.30;;;5.70;94.40;;;;;;5527866;25;20509;-56
2024/04/23 05:59:36;;;;;;;16.30;13.57;;;5.80;94.50;;;;;;5527319;25;20454;-56
2024/04/23 06:02:04;;;;;;;14.63;13.13;;;5.90;94.60;;;;;;5527319;25;20518;-55
2024/04/23 06:04:30;;;;;;;16.27;14.60;;;5.90;94.60;;;;;;5527385;25;20458;-55
2024/04/23 06:07:00;;;;;;;17.63;15.07;;;6.00;94.80;;;;;;5527080;25;20559;-56
2024/04/23 06:09:26;;;;;;;14.83;13.33;;;6.00;94.90;;;;;;5527301;25;20244;-55
2024/04/23 06:11:55;;;;;;;15.90;14.20;;;6.10;95.10;;;;;;5527254;25;20458;-56
2024/04/23 06:14:21;;;;;;;17.33;13.93;;;6.20;95.30;;;;;;5527242;25;20834;-56
2024/04/23 06:17:24;;;;;;;15.43;13.43;;;6.30;95.40;;;;;;5527371;25;20450;-56
2024/04/23 06:19:50;;;;;;;15.50;13.80;;;6.40;95.50;;;;;;5527333;25;20309;-56
2024/04/23 06:22:20;;;;;;;20.93;13.43;;;6.40;95.60;;;;;;5526972;25;21071;-56
2024/04/23 06:24:47;;;;;;;15.63;14.03;;;6.50;95.70;;;;;;5527157;25;20527;-57
2024/04/23 06:27:16;;;;;;;15.43;12.87;;;6.60;95.70;;;;;;5527408;25;20597;-56
2024/04/23 06:29:45;;;;;;;15.57;13.83;;;6.60;95.80;;;;;;5527382;25;20839;-58
2024/04/23 06:32:12;;;;;;;16.67;14.53;;;6.70;95.80;;;;;;5527380;25;20466;-57
2024/04/23 06:34:44;;;;;;;16.73;13.80;;;6.80;95.80;;;;;;5527166;25;20563;-57
2024/04/23 06:37:11;;;;;;;14.63;13.23;;;6.90;95.60;;;;;;5527044;25;20446;-58
2024/04/23 06:39:40;;;;;;;16.63;13.73;;;6.90;95.30;;;;;;5526859;25;20458;-56
2024/04/23 06:42:06;;;;;;;17.53;14.60;;;7.00;95.20;;;;;;5526988;25;20858;-58
2024/04/23 06:44:34;;;;;;;14.90;13.20;;;7.10;95.10;;;;;;5527011;25;20502;-55
2024/04/23 06:47:00;;;;;;;15.80;14.10;;;7.20;95.30;;;;;;5526904;25;20552;-56
2024/04/23 06:49:30;;;;;;;17.77;14.70;;;7.30;95.00;;;;;;5527014;25;20870;-56
2024/04/23 06:51:59;;;;;;;19.97;14.70;;;7.40;95.00;;;;;;5527058;25;20537;-56
2024/04/23 06:54:27;;;;;;;14.27;12.87;;;7.60;95.20;;;;;;5526959;25;20550;-56
2024/04/23 06:56:53;;;;;;;13.47;12.03;;;7.60;95.10;;;;;;5526430;25;20450;-56
2024/04/23 06:59:21;;;;;;;18.33;12.97;;;7.80;94.70;;;;;;5526509;25;20559;-56
2024/04/23 07:01:47;;;;;;;15.03;12.90;;;7.90;94.00;;;;;;5526531;25;20728;-56
2024/04/23 07:04:16;;;;;;;13.63;12.20;;;8.10;93.50;;;;;;5526643;25;20458;-56
2024/04/23 07:06:42;;;;;;;14.53;12.40;;;8.20;93.00;;;;;;5526785;25;20376;-56
2024/04/23 07:09:13;;;;;;;13.83;12.30;;;8.40;92.50;;;;;;5527083;25;21013;-56
2024/04/23 07:11:39;;;;;;;12.43;11.10;;;8.50;92.40;;;;;;5526722;25;20218;-58
2024/04/23 07:14:07;;;;;;;13.53;11.60;;;8.70;92.20;;;;;;5526603;25;21051;-57
2024/04/23 07:16:33;;;;;;;11.83;10.60;;;8.80;91.80;;;;;;5526644;25;20214;-57
2024/04/23 07:19:02;;;;;;;15.00;11.67;;;9.00;91.30;;;;;;5526585;25;20841;-57
2024/04/23 07:21:27;;;;;;;12.53;11.23;;;9.20;90.80;;;;;;5526140;25;20230;-57
2024/04/23 07:23:56;;;;;;;10.33;9.00;;;9.40;90.50;;;;;;5526294;25;20898;-57
2024/04/23 07:26:24;;;;;;;18.40;10.50;;;9.50;89.30;;;;;;5526147;25;20329;-57
2024/04/23 07:28:53;;;;;;;16.40;10.17;;;9.70;86.80;;;;;;5526122;25;20446;-57
2024/04/23 07:31:20;;;;;;;10.63;9.10;;;9.80;85.60;;;;;;5525891;25;20506;-57
2024/04/23 07:33:48;;;;;;;10.30;8.90;;;9.90;84.30;;;;;;5525924;25;20454;-57
2024/04/23 07:36:14;;;;;;;10.90;8.00;;;10.00;82.60;;;;;;5525937;25;20553;-57
2024/04/23 07:38:42;;;;;;;9.60;8.27;;;10.20;81.40;;;;;;5525900;25;20450;-56
2024/04/23 07:41:08;;;;;;;11.10;6.60;;;10.30;80.20;;;;;;5525967;25;20233;-57
2024/04/23 07:43:39;;;;;;;7.27;6.07;;;10.50;80.10;;;;;;5525693;25;20901;-57
2024/04/23 07:46:05;;;;;;;10.20;6.53;;;10.70;77.40;;;;;;5529593;25;20225;-57
2024/04/23 07:48:33;;;;;;;8.73;6.57;;;11.00;75.90;;;;;;5529602;25;20493;-56
2024/04/23 07:50:59;;;;;;;9.80;6.90;;;11.20;74.70;;;;;;5529706;25;20273;-56
2024/04/23 07:53:31;;;;;;;11.60;7.03;;;11.40;72.00;;;;;;5529506;25;20442;-56
2024/04/23 07:55:57;;;;;;;8.20;6.93;;;11.60;69.90;;;;;;5529347;25;20205;-56
2024/04/23 07:58:26;;;;;;;12.70;7.10;;;11.80;68.50;;;;;;5529360;25;21030;-56
2024/04/23 08:00:55;;;;;;;8.33;6.27;;;12.10;67.00;;;;;;5529321;25;20311;-57
2024/04/23 08:03:23;;;;;;;8.17;6.80;;;12.30;64.90;;;;;;5529295;25;20442;-56
2024/04/23 08:05:53;;;;;;;6.23;5.63;;;12.50;63.30;;;;;;5529114;25;20829;-56
2024/04/23 08:08:22;;;;;;;9.00;6.40;;;12.70;64.40;;;;;;5529238;25;20465;-56
2024/04/23 08:10:48;;;;;;;8.37;5.70;;;13.00;64.90;;;;;;5529174;25;20509;-56
2024/04/23 08:13:16;;;;;;;9.67;5.90;;;13.30;63.40;;;;;;5529142;25;20454;-56
2024/04/23 08:15:42;;;;;;;6.40;5.40;;;13.50;60.40;;;;;;5529094;25;20462;-56
2024/04/23 08:18:13;;;;;;;9.33;6.80;;;13.60;58.80;;;;;;5529020;25;20446;-56
2024/04/23 08:20:39;;;;;;;9.53;7.30;;;13.90;59.10;;;;;;5529068;25;20265;-56
2024/04/23 08:23:07;;;;;;;9.53;8.10;;;14.00;59.60;;;;;;5529047;25;20454;-57
2024/04/23 08:25:33;;;;;;;7.60;6.80;;;14.10;58.90;;;;;;5528949;25;20248;-56
2024/04/23 08:28:02;;;;;;;10.97;7.60;;;14.10;57.80;;;;;;5528668;25;20857;-56
2024/04/23 08:30:28;;;;;;;10.37;7.20;;;14.10;57.90;;;;;;5528499;25;20445;-56
2024/04/23 08:32:56;;;;;;;10.40;7.27;;;14.20;57.80;;;;;;5528731;25;20902;-56
2024/04/23 08:35:25;;;;;;;7.80;6.70;;;14.20;57.30;;;;;;5528594;25;20256;-56
2024/04/23 08:37:53;;;;;;;8.37;6.43;;;14.30;56.60;;;;;;5528803;25;20506;-56
2024/04/23 08:40:20;;;;;;;7.53;6.53;;;14.40;57.00;;;;;;5528742;25;20454;-57
2024/04/23 08:42:51;;;;;;;7.17;6.37;;;14.50;56.40;;;;;;5528717;25;20850;-57
2024/04/23 08:45:19;;;;;;;8.20;6.10;;;14.60;54.30;;;;;;5528780;25;20490;-57
2024/04/23 08:47:48;;;;;;;6.57;5.47;;;14.70;53.30;;;;;;5528698;25;20563;-57
2024/04/23 08:50:16;;;;;;;7.63;6.50;;;14.80;54.10;;;;;;5528474;25;20438;-57
2024/04/23 08:52:51;;;;;;;7.53;6.50;;;15.00;53.70;;;;;;5528551;25;20500;-57
2024/04/23 08:55:17;;;;;;;6.87;5.87;;;15.20;53.30;;;;;;5527840;25;20458;-56
2024/04/23 08:57:46;;;;;;;5.00;4.60;;;15.40;53.40;;;;;;5527925;25;21051;-57
2024/04/23 09:00:13;;;;;;;4.43;4.03;;;15.60;53.10;;;;;;5528152;25;21092;-56
2024/04/23 09:02:43;;;;;;;4.27;3.90;;;15.90;52.00;;;;;;5528326;25;20490;-57
2024/04/23 09:05:11;;;;;;;4.80;3.60;;;16.20;51.40;;;;;;5528310;25;21077;-57
2024/04/23 09:07:40;;;;;;;5.40;4.60;;;16.50;51.10;;;;;;5528307;25;20510;-56
2024/04/23 09:10:10;;;;;;;6.60;5.20;;;16.90;48.50;;;;;;5528280;25;21073;-56
2024/04/23 09:12:45;;;;;;;5.10;4.60;;;17.10;47.20;;;;;;5528173;25;20980;-57
2024/04/23 09:15:12;;;;;;;6.47;5.20;;;17.40;47.60;;;;;;5528000;25;20438;-57
2024/04/23 09:17:40;;;;;;;5.30;4.80;;;17.60;47.40;;;;;;5527900;25;20531;-54
2024/04/23 09:20:09;;;;;;;5.63;4.70;;;17.70;46.20;;;;;;5527909;25;20552;-55
2024/04/23 09:22:40;;;;;;;9.37;6.03;;;17.90;44.90;;;;;;5527854;25;20450;-56
2024/04/23 09:25:08;;;;;;;5.93;4.13;;;18.30;44.40;;;;;;5528045;25;20461;-56
2024/04/23 09:27:39;;;;;;;3.80;3.50;;;18.60;44.20;;;;;;5527715;25;20980;-56
2024/04/23 09:30:07;;;;;;;4.23;3.83;;;19.00;43.30;;;;;;5527668;25;20498;-56
2024/04/23 09:32:36;;;;;;;5.00;4.53;;;19.20;41.20;;;;;;5527925;25;20518;-56
2024/04/23 09:35:03;;;;;;;4.57;4.10;;;19.50;41.10;;;;;;5527985;25;20450;-56
2024/04/23 09:37:32;;;;;;;4.23;3.83;;;19.80;40.10;;;;;;5527769;25;20458;-57
2024/04/23 09:40:01;;;;;;;4.27;3.87;;;19.90;39.60;;;;;;5527504;25;20495;-57
2024/04/23 09:42:33;;;;;;;3.80;3.13;;;20.20;40.20;;;;;;5527564;25;20813;-57
2024/04/23 09:44:59;;;;;;;4.90;3.43;;;20.40;39.10;;;;;;5527640;25;20457;-57
2024/04/23 09:47:28;;;;;;;3.33;3.03;;;20.70;38.80;;;;;;5527530;25;20454;-57
2024/04/23 09:49:54;;;;;;;3.53;3.23;;;21.00;38.10;;;;;;5527443;25;20313;-57
2024/04/23 09:52:35;;;;;;;3.33;3.03;;;21.30;37.50;;;;;;5527571;25;20470;-57
2024/04/23 09:55:01;;;;;;;4.07;3.73;;;21.60;36.50;;;;;;5527866;25;20446;-57
2024/04/23 09:57:32;;;;;;;3.70;3.40;;;21.90;33.80;;;;;;5527453;25;21047;-57
2024/04/23 09:59:58;;;;;;;3.60;3.23;;;22.10;33.50;;;;;;5527359;25;20450;-57
2024/04/23 10:02:29;;;;;;;3.63;3.00;;;22.30;33.10;;;;;;5527459;25;20518;-57
2024/04/23 10:05:07;;;;;;;3.90;2.90;;;22.40;33.10;;;;;;5527605;25;20253;-57
2024/04/23 10:07:43;;;;;;;2.93;2.73;;;22.70;34.10;;;;;;5527012;25;20450;-57
2024/04/23 10:10:13;;;;;;;4.57;3.50;;;23.00;33.80;;;;;;5527572;25;20446;-57
2024/04/23 10:12:44;;;;;;;2.87;2.67;;;23.40;33.80;;;;;;5527330;25;20515;-57
2024/04/23 10:15:17;;;;;;;3.87;3.50;;;23.60;30.00;;;;;;5527305;25;20525;-58
2024/04/23 10:17:49;;;;;;;3.87;3.57;;;23.60;29.10;;;;;;5527221;25;20442;-56
2024/04/23 10:20:25;;;;;;;3.90;3.43;;;22.70;27.50;;;;;;5527117;25;20506;-56
2024/04/23 10:22:55;;;;;;;4.90;3.10;;;22.40;29.40;;;;;;5527925;25;20449;-56
2024/04/23 10:25:21;;;;;;;3.43;3.13;;;22.40;29.50;;;;;;5527506;25;20450;-56
2024/04/23 10:27:53;;;;;;;3.87;2.50;;;22.40;30.20;;;;;;5527179;25;20917;-56
2024/04/23 10:30:21;;;;;;;3.00;2.70;;;22.50;30.20;;;;;;5527159;25;20213;-56
2024/04/23 10:32:51;;;;;;;3.33;3.03;;;22.70;30.50;;;;;;5527028;25;20506;-56
2024/04/23 10:35:18;;;;;;;3.10;2.80;;;23.10;31.00;;;;;;5526966;25;20446;-55
2024/04/23 10:37:48;;;;;;;2.70;2.50;;;23.70;29.50;;;;;;5526947;25;20450;-55
2024/04/23 10:40:15;;;;;;;3.20;2.93;;;24.30;29.40;;;;;;5526725;25;20465;-56
2024/04/23 10:42:43;;;;;;;3.37;3.07;;;25.00;28.50;;;;;;5526799;25;20532;-56
2024/04/23 10:45:13;;;;;;;2.27;2.13;;;25.60;26.90;;;;;;5527244;25;20494;-56
2024/04/23 10:47:51;;;;;;;2.80;2.60;;;26.30;26.10;;;;;;5526833;25;20580;-56
2024/04/23 10:50:24;;;;;;;2.30;2.20;;;26.90;23.80;;;;;;5526994;25;20618;-55
2024/04/23 10:52:56;;;;;;;2.20;2.10;;;27.40;24.00;;;;;;5526978;25;20555;-56
2024/04/23 10:55:25;;;;;;;2.03;1.80;;;28.00;24.10;;;;;;5526846;25;20453;-56
2024/04/23 10:57:52;;;;;;;2.57;2.37;;;28.70;22.60;;;;;;5526876;25;20815;-56
2024/04/23 11:00:34;;;;;;;2.60;2.40;;;29.20;22.30;;;;;;5526160;25;20438;-56
2024/04/23 11:03:00;;;;;;;3.00;2.70;;;29.70;21.90;;;;;;5526437;25;20462;-56
2024/04/23 11:05:32;;;;;;;2.90;2.70;;;30.30;22.00;;;;;;5526405;25;20449;-56
2024/04/23 11:08:06;;;;;;;3.60;3.30;;;30.60;19.80;;;;;;5526663;25;20264;-56
2024/04/23 11:10:49;;;;;;;3.63;2.90;;;30.70;20.00;;;;;;5526439;25;20477;-56
2024/04/23 11:13:27;;;;;;;3.50;3.17;;;30.70;20.70;;;;;;5526612;25;20778;-56
2024/04/23 11:16:01;;;;;;;3.17;2.97;;;30.80;21.50;;;;;;5526644;25;20524;-56
2024/04/23 11:18:38;;;;;;;3.63;3.33;;;31.00;20.20;;;;;;5525379;25;20465;-56
2024/04/23 11:21:10;;;;;;;3.70;3.50;;;31.10;19.50;;;;;;5526286;25;20800;-56
2024/04/23 11:23:39;;;;;;;3.73;3.43;;;31.30;19.30;;;;;;5527083;25;20575;-57
2024/04/23 11:26:08;;;;;;;3.60;2.80;;;31.50;19.10;;;;;;5527420;25;21057;-57
2024/04/23 11:28:36;;;;;;;3.53;3.30;;;31.80;19.50;;;;;;5527477;25;20559;-57
2024/04/23 11:31:08;;;;;;;3.20;2.90;;;32.10;18.40;;;;;;5526889;25;20520;-56
2024/04/23 11:33:34;;;;;;;3.93;3.17;;;32.20;19.10;;;;;;5526534;25;20445;-56
2024/04/23 11:36:03;;;;;;;4.00;3.60;;;32.30;18.40;;;;;;5526084;25;20449;-56
2024/04/23 11:38:39;;;;;;;2.87;2.67;;;32.60;18.00;;;;;;5525866;25;20446;-56
2024/04/23 11:41:14;;;;;;;3.10;2.90;;;33.00;19.40;;;;;;5526362;25;20464;-57
2024/04/23 11:43:44;;;;;;;2.90;2.70;;;33.60;19.20;;;;;;5525898;25;20449;-57
2024/04/23 11:46:16;;;;;;;3.23;2.93;;;33.90;18.30;;;;;;5526087;25;20319;-57
2024/04/23 11:48:44;;;;;;;4.20;3.90;;;33.60;18.40;;;;;;5525700;25;20205;-56
2024/04/23 11:51:11;;;;;;;4.17;3.77;;;32.80;18.50;;;;;;5525654;25;20225;-56
2024/04/23 11:53:40;;;;;;;7.30;4.20;;;31.60;18.30;;;;;;5525656;25;20461;-56
2024/04/23 11:56:06;;;;;;;4.00;3.70;;;30.20;19.40;;;;;;5525615;25;20517;-56
2024/04/23 11:58:39;;;;;;;4.20;3.70;;;28.80;20.50;;;;;;5525448;25;20492;-56
2024/04/23 12:01:07;;;;;;;3.40;3.10;;;27.70;22.00;;;;;;5525330;25;20884;-56
2024/04/23 12:03:38;;;;;;;5.20;3.40;;;26.70;23.00;;;;;;5525192;25;20450;-56
2024/04/23 12:06:05;;;;;;;4.10;3.80;;;25.90;23.40;;;;;;5525356;25;20490;-56
2024/04/23 12:08:35;;;;;;;4.00;3.70;;;25.20;24.70;;;;;;5525191;25;20801;-56
2024/04/23 12:11:01;;;;;;;3.60;3.30;;;24.60;25.40;;;;;;5525180;25;20521;-56
2024/04/23 12:13:30;;;;;;;4.27;3.87;;;24.10;26.20;;;;;;5524987;25;20449;-56
2024/04/23 12:15:56;;;;;;;4.30;3.77;;;23.60;25.70;;;;;;5521658;25;20467;-56
2024/04/23 12:18:25;;;;;;;6.60;3.47;;;23.20;24.30;;;;;;5498093;25;21107;-56
2024/04/23 12:20:53;;;;;;;3.70;3.40;;;23.00;25.30;;;;;;5488452;26;20877;-56
2024/04/23 12:23:23;;;;;;;4.57;4.17;;;23.20;25.30;;;;;;5488367;26;20495;-56
2024/04/23 12:25:51;;;;;;;5.07;4.67;;;23.30;24.50;;;;;;5488458;26;20451;-56
2024/04/23 12:28:20;;;;;;;4.83;4.43;;;22.90;24.10;;;;;;5488387;26;20898;-57
2024/04/23 12:30:46;;;;;;;5.73;5.20;;;22.60;24.80;;;;;;5490478;26;20483;-56
2024/04/23 12:33:15;;;;;;;5.20;4.70;;;22.30;25.10;;;;;;5492104;26;20444;-57
2024/04/23 12:35:42;;;;;;;4.70;4.30;;;22.20;25.70;;;;;;5492117;26;20843;-57
2024/04/23 12:38:14;;;;;;;5.50;4.90;;;22.10;26.50;;;;;;5491906;26;20491;-56
2024/04/23 12:40:40;;;;;;;5.23;4.70;;;22.20;26.20;;;;;;5491725;26;20601;-57
2024/04/23 12:43:12;;;;;;;5.53;4.53;;;22.10;26.30;;;;;;5491923;26;20973;-57
2024/04/23 12:45:39;;;;;;;4.90;4.50;;;21.80;26.40;;;;;;5492041;26;20459;-56
2024/04/23 12:48:08;;;;;;;4.60;4.30;;;21.60;26.80;;;;;;5491489;26;20448;-56
2024/04/23 12:50:33;;;;;;;4.80;4.50;;;21.40;26.60;;;;;;5491170;26;20475;-56
2024/04/23 12:53:02;;;;;;;5.33;4.83;;;21.10;26.20;;;;;;5491659;26;21044;-56
2024/04/23 12:55:31;;;;;;;5.80;4.90;;;20.70;27.00;;;;;;5491403;26;20985;-56
2024/04/23 12:58:01;;;;;;;5.03;4.63;;;20.20;27.70;;;;;;5491653;26;20451;-56